createdAt,value
2022-12-28T00:02:18.007Z,98556.91
2022-12-28T00:04:47.850Z,98550.81
2022-12-28T00:07:16.185Z,98542.94
2022-12-28T00:09:44.459Z,98537.88
2022-12-28T00:12:12.698Z,98543.97
2022-12-28T00:14:40.952Z,98537.94
2022-12-28T00:17:09.270Z,98526.72
2022-12-28T00:19:37.572Z,98530.28
2022-12-28T00:22:07.179Z,98532.91
2022-12-28T00:24:35.818Z,98537.34
2022-12-28T00:27:04.092Z,98531.25
2022-12-28T00:29:32.323Z,98530.34
2022-12-28T00:32:00.668Z,98524.34
2022-12-28T00:34:29.211Z,98527.91
2022-12-28T00:37:11.144Z,98521.97
2022-12-28T00:39:43.190Z,98522.97
2022-12-28T00:42:12.128Z,98516.03
2022-12-28T00:44:41.035Z,98523.97
2022-12-28T00:47:09.529Z,98521.44
2022-12-28T00:49:37.832Z,98515.44
2022-12-28T00:52:06.672Z,98512.81
2022-12-28T00:54:34.956Z,98513.88
2022-12-28T00:57:04.771Z,98513.88
2022-12-28T00:59:32.977Z,98511.25
2022-12-28T01:02:01.405Z,98522.69
2022-12-28T01:04:31.427Z,98515.75
2022-12-28T01:06:59.726Z,98521.06
2022-12-28T01:09:27.993Z,98529.75
2022-12-28T01:11:56.260Z,98528.03
2022-12-28T01:14:26.230Z,98523.75
2022-12-28T01:16:54.658Z,98529.88
2022-12-28T01:19:24.149Z,98529.88
2022-12-28T01:21:53.300Z,98519.47
2022-12-28T01:24:21.774Z,98512.56
2022-12-28T01:26:50.048Z,98496.06
2022-12-28T01:29:18.375Z,98496.22
2022-12-28T01:31:47.991Z,98495.41
2022-12-28T01:34:16.486Z,98485.91
2022-12-28T01:36:44.725Z,98485.09
2022-12-28T01:39:13.031Z,98476.47
2022-12-28T01:41:43.248Z,98475.69
2022-12-28T01:44:41.303Z,98484.38
2022-12-28T01:47:19.056Z,98481.00
2022-12-28T01:49:57.607Z,98482.78
2022-12-28T01:52:31.138Z,98475.00
2022-12-28T01:55:05.328Z,98473.22
2022-12-28T01:57:40.963Z,98481.94
2022-12-28T02:00:13.902Z,98468.91
2022-12-28T02:02:49.682Z,98463.69
2022-12-28T02:05:19.320Z,98464.63
2022-12-28T02:07:54.043Z,98462.94
2022-12-28T02:10:44.493Z,98466.47
2022-12-28T02:13:11.829Z,98471.03
2022-12-28T02:15:40.130Z,98477.09
2022-12-28T02:18:10.261Z,98465.00
2022-12-28T02:21:00.034Z,98459.84
2022-12-28T02:23:49.907Z,98457.31
2022-12-28T02:26:48.209Z,98453.91
2022-12-28T02:29:52.086Z,98446.16
2022-12-28T02:32:37.843Z,98447.09
2022-12-28T02:35:12.210Z,98437.53
2022-12-28T02:37:47.842Z,98435.69
2022-12-28T02:40:22.485Z,98418.13
2022-12-28T02:42:51.845Z,98428.53
2022-12-28T02:45:57.702Z,98426.75
2022-12-28T02:48:43.912Z,98421.53
2022-12-28T02:51:30.256Z,98412.81
2022-12-28T02:54:45.343Z,98404.19
2022-12-28T02:57:30.093Z,98399.03
2022-12-28T03:00:06.972Z,98398.13
2022-12-28T03:03:01.514Z,98398.13
2022-12-28T03:05:55.500Z,98399.81
2022-12-28T03:08:37.673Z,98397.19
2022-12-28T03:11:11.107Z,98395.50
2022-12-28T03:13:53.646Z,98393.72
2022-12-28T03:16:28.957Z,98385.03
2022-12-28T03:19:22.089Z,98384.09
2022-12-28T03:22:11.056Z,98378.19
2022-12-28T03:24:59.168Z,98380.78
2022-12-28T03:27:46.818Z,98379.97
2022-12-28T03:30:39.020Z,98368.63
2022-12-28T03:33:07.991Z,98366.97
2022-12-28T03:35:45.578Z,98372.13
2022-12-28T03:38:27.398Z,98372.03
2022-12-28T03:41:03.672Z,98364.94
2022-12-28T03:43:42.443Z,98357.84
2022-12-28T03:46:18.797Z,98355.16
2022-12-28T03:48:48.445Z,98340.31
2022-12-28T03:51:23.320Z,98334.13
2022-12-28T03:53:51.851Z,98326.19
2022-12-28T03:56:22.479Z,98315.66
2022-12-28T03:58:51.221Z,98302.47
2022-12-28T04:01:20.161Z,98303.31
2022-12-28T04:03:48.942Z,98298.00
2022-12-28T04:06:20.963Z,98300.53
2022-12-28T04:08:49.710Z,98303.97
2022-12-28T04:11:17.927Z,98315.31
2022-12-28T04:13:46.120Z,98320.53
2022-12-28T04:16:15.971Z,98308.41
2022-12-28T04:18:44.571Z,98303.97
2022-12-28T04:21:14.569Z,98298.66
2022-12-28T04:23:45.569Z,98301.19
2022-12-28T04:26:16.238Z,98304.69
2022-12-28T04:28:45.319Z,98301.03
2022-12-28T04:31:15.107Z,98305.34
2022-12-28T04:33:43.390Z,98300.00
2022-12-28T04:36:15.325Z,98313.09
2022-12-28T04:38:45.073Z,98309.56
2022-12-28T04:41:14.041Z,98304.34
2022-12-28T04:43:42.446Z,98299.94
2022-12-28T04:46:15.012Z,98293.78
2022-12-28T04:48:43.474Z,98297.22
2022-12-28T04:51:17.731Z,98290.22
2022-12-28T04:53:47.954Z,98279.66
2022-12-28T04:56:17.929Z,98282.19
2022-12-28T04:58:47.727Z,98278.63
2022-12-28T05:01:18.641Z,98284.66
2022-12-28T05:03:55.477Z,98291.47
2022-12-28T05:06:27.744Z,98294.03
2022-12-28T05:08:58.064Z,98296.66
2022-12-28T05:11:29.146Z,98301.00
2022-12-28T05:13:58.410Z,98296.59
2022-12-28T05:16:29.105Z,98306.88
2022-12-28T05:18:58.467Z,98308.59
2022-12-28T05:21:29.463Z,98310.19
2022-12-28T05:23:59.921Z,98310.97
2022-12-28T05:26:30.536Z,98318.75
2022-12-28T05:29:00.706Z,98310.78
2022-12-28T05:31:29.392Z,98299.28
2022-12-28T05:33:57.837Z,98293.13
2022-12-28T05:36:28.112Z,98293.03
2022-12-28T05:38:58.727Z,98292.94
2022-12-28T05:41:29.605Z,98293.78
2022-12-28T05:44:00.415Z,98287.63
2022-12-28T05:46:31.608Z,98280.69
2022-12-28T05:49:00.997Z,98272.84
2022-12-28T05:51:31.635Z,98271.97
2022-12-28T05:54:04.493Z,98260.69
2022-12-28T05:56:33.706Z,98266.75
2022-12-28T05:59:04.738Z,98265.91
2022-12-28T06:01:35.471Z,98262.44
2022-12-28T06:04:06.269Z,98252.06
2022-12-28T06:06:37.037Z,98247.75
2022-12-28T06:09:06.824Z,98251.19
2022-12-28T06:11:35.166Z,98251.28
2022-12-28T06:14:05.777Z,98250.47
2022-12-28T06:16:36.281Z,98242.69
2022-12-28T06:19:07.607Z,98235.66
2022-12-28T06:21:38.994Z,98231.34
2022-12-28T06:24:10.888Z,98228.75
2022-12-28T06:26:41.245Z,98220.88
2022-12-28T06:29:09.763Z,98225.25
2022-12-28T06:31:40.781Z,98227.06
2022-12-28T06:34:11.164Z,98228.75
2022-12-28T06:36:41.931Z,98215.63
2022-12-28T06:39:14.160Z,98226.88
2022-12-28T06:41:42.776Z,98225.84
2022-12-28T06:44:14.123Z,98224.91
2022-12-28T06:46:42.601Z,98233.53
2022-12-28T06:49:10.850Z,98240.38
2022-12-28T06:51:42.001Z,98234.22
2022-12-28T06:54:12.603Z,98241.13
2022-12-28T06:56:41.156Z,98246.13
2022-12-28T06:59:09.647Z,98239.94
2022-12-28T07:01:40.153Z,98245.94
2022-12-28T07:04:11.156Z,98244.16
2022-12-28T07:06:44.346Z,98246.75
2022-12-28T07:09:16.771Z,98252.84
2022-12-28T07:11:45.506Z,98256.25
2022-12-28T07:14:14.063Z,98248.31
2022-12-28T07:16:44.012Z,98236.19
2022-12-28T07:19:12.601Z,98242.78
2022-12-28T07:21:41.589Z,98240.91
2022-12-28T07:24:10.805Z,98249.53
2022-12-28T07:26:40.412Z,98250.31
2022-12-28T07:29:09.868Z,98248.31
2022-12-28T07:31:45.372Z,98240.38
2022-12-28T07:34:14.634Z,98242.09
2022-12-28T07:36:42.879Z,98229.72
2022-12-28T07:39:11.214Z,98229.63
2022-12-28T07:41:40.801Z,98233.88
2022-12-28T07:44:09.047Z,98217.19
2022-12-28T07:46:38.676Z,98225.81
2022-12-28T07:49:07.814Z,98234.41
2022-12-28T07:51:37.963Z,98230.78
2022-12-28T07:54:07.120Z,98242.88
2022-12-28T07:59:07.491Z,98242.59
2022-12-28T08:01:38.276Z,98244.19
2022-12-28T08:04:09.319Z,98238.00
2022-12-28T08:06:40.092Z,98240.44
2022-12-28T08:09:11.406Z,98235.19
2022-12-28T08:11:42.400Z,98232.47
2022-12-28T08:14:12.947Z,98222.94
2022-12-28T08:16:43.371Z,98221.06
2022-12-28T08:19:12.455Z,98220.97
2022-12-28T08:21:44.207Z,98226.88
2022-12-28T08:24:16.661Z,98229.22
2022-12-28T08:26:45.678Z,98221.06
2022-12-28T08:29:19.101Z,98225.13
2022-12-28T08:31:48.380Z,98209.94
2022-12-28T08:34:19.241Z,98207.03
2022-12-28T08:36:48.004Z,98210.31
2022-12-28T08:39:16.253Z,98206.56
2022-12-28T08:41:44.699Z,98204.69
2022-12-28T08:44:14.330Z,98205.31
2022-12-28T08:46:42.725Z,98217.34
2022-12-28T08:49:11.128Z,98218.06
2022-12-28T08:51:41.572Z,98215.34
2022-12-28T08:54:11.750Z,98219.50
2022-12-28T08:56:42.758Z,98211.44
2022-12-28T08:59:16.208Z,98213.88
2022-12-28T09:01:45.340Z,98214.59
2022-12-28T09:04:17.187Z,98213.56
2022-12-28T09:06:45.552Z,98215.06
2022-12-28T09:09:16.452Z,98207.84
2022-12-28T09:11:45.264Z,98213.63
2022-12-28T09:14:23.245Z,98205.56
2022-12-28T09:16:52.908Z,98206.75
2022-12-28T09:19:21.991Z,98197.66
2022-12-28T09:21:52.676Z,98197.28
2022-12-28T09:24:21.166Z,98197.69
2022-12-28T09:26:52.508Z,98199.22
2022-12-28T09:29:22.368Z,98194.47
2022-12-28T09:31:50.735Z,98198.50
2022-12-28T09:34:36.788Z,98196.50
2022-12-28T09:37:07.010Z,98191.91
2022-12-28T09:39:35.672Z,98190.97
2022-12-28T09:42:07.853Z,98193.38
2022-12-28T09:44:56.036Z,98188.69
2022-12-28T09:47:32.160Z,98184.69
2022-12-28T09:50:29.829Z,98182.31
2022-12-28T09:53:21.220Z,98177.09
2022-12-28T09:56:00.034Z,98171.31
2022-12-28T09:58:31.209Z,98173.31
2022-12-28T10:01:02.962Z,98171.75
2022-12-28T10:03:38.050Z,98154.63
2022-12-28T10:06:13.370Z,98152.16
2022-12-28T10:08:46.125Z,98141.97
2022-12-28T10:11:20.461Z,98138.81
2022-12-28T10:13:55.867Z,98138.16
2022-12-28T10:16:29.384Z,98127.09
2022-12-28T10:18:57.751Z,98119.47
2022-12-28T10:21:32.699Z,98116.19
2022-12-28T10:24:30.187Z,98106.91
2022-12-28T10:26:52.132Z,98109.81
2022-12-28T10:29:23.340Z,98099.44
2022-12-28T10:32:03.265Z,98097.31
2022-12-28T10:34:35.215Z,98080.94
2022-12-28T10:37:14.080Z,98080.47
2022-12-28T10:39:51.627Z,98077.63
2022-12-28T10:42:25.838Z,98078.13
2022-12-28T10:44:57.058Z,98077.91
2022-12-28T10:47:35.493Z,98070.59
2022-12-28T10:52:58.998Z,98060.44
2022-12-28T10:55:33.744Z,98062.72
2022-12-28T10:58:29.693Z,98059.00
2022-12-28T11:01:02.296Z,98046.69
2022-12-28T11:03:35.817Z,98042.84
2022-12-28T11:06:19.885Z,98040.50
2022-12-28T11:09:06.240Z,98042.44
2022-12-28T11:11:35.363Z,98049.41
2022-12-28T11:14:15.488Z,98031.78
2022-12-28T11:16:44.629Z,98033.34
2022-12-28T11:19:14.715Z,98039.69
2022-12-28T11:21:44.128Z,98030.38
2022-12-28T11:24:16.011Z,98029.72
2022-12-28T11:26:46.610Z,98024.94
2022-12-28T11:29:17.249Z,98029.00
2022-12-28T11:31:51.451Z,98031.16
2022-12-28T11:34:27.843Z,98034.28
2022-12-28T11:36:56.454Z,98027.91
2022-12-28T11:39:50.294Z,98024.19
2022-12-28T11:43:00.017Z,98011.00
2022-12-28T11:45:53.259Z,98014.31
2022-12-28T11:48:59.335Z,98006.28
2022-12-28T11:51:30.916Z,98002.56
2022-12-28T11:54:01.881Z,97998.72
2022-12-28T11:57:00.320Z,97993.19
2022-12-28T11:59:31.076Z,97984.16
2022-12-28T12:02:01.149Z,97980.44
2022-12-28T12:04:40.163Z,97980.03
2022-12-28T12:07:51.888Z,97966.59
2022-12-28T12:10:34.053Z,97964.78
2022-12-28T12:13:20.348Z,97963.00
2022-12-28T12:15:51.146Z,97963.81
2022-12-28T12:18:23.862Z,97961.03
2022-12-28T12:20:58.557Z,97959.13
2022-12-28T12:23:40.444Z,97956.63
2022-12-28T12:26:27.682Z,97952.44
2022-12-28T12:29:01.154Z,97940.16
2022-12-28T12:31:33.177Z,97946.31
2022-12-28T12:34:14.530Z,97931.56
2022-12-28T12:37:36.259Z,97932.75
2022-12-28T12:40:57.340Z,97922.47
2022-12-28T12:43:34.511Z,97922.72
2022-12-28T12:46:32.174Z,97915.03
2022-12-28T12:49:33.799Z,97908.06
2022-12-28T12:52:12.353Z,97900.28
2022-12-28T12:55:02.467Z,97895.00
2022-12-28T12:57:45.035Z,97886.13
2022-12-28T13:00:17.626Z,97881.66
2022-12-28T13:03:20.199Z,97886.00
2022-12-28T13:05:55.213Z,97881.41
2022-12-28T13:08:31.064Z,97878.75
2022-12-28T13:10:59.393Z,97880.34
2022-12-28T13:13:36.207Z,97875.75
2022-12-28T13:16:10.456Z,97869.63
2022-12-28T13:18:46.371Z,97875.59
2022-12-28T13:21:22.097Z,97866.88
2022-12-28T13:23:51.861Z,97865.91
2022-12-28T13:26:27.676Z,97857.97
2022-12-28T13:29:01.213Z,97857.00
2022-12-28T13:31:36.462Z,97849.06
2022-12-28T13:34:07.688Z,97851.59
2022-12-28T13:36:35.959Z,97851.44
2022-12-28T13:39:09.980Z,97851.44
2022-12-28T13:41:39.967Z,97853.13
2022-12-28T13:44:34.165Z,97852.31
2022-12-28T13:47:10.183Z,97855.88
2022-12-28T13:49:44.666Z,97846.16
2022-12-28T13:52:19.395Z,97846.03
2022-12-28T13:54:52.472Z,97848.81
2022-12-28T14:00:15.932Z,97842.69
2022-12-28T14:02:44.299Z,97842.56
2022-12-28T14:05:18.648Z,97842.41
2022-12-28T14:07:48.463Z,97836.19
2022-12-28T14:10:17.513Z,97843.13
2022-12-28T14:12:46.972Z,97845.66
2022-12-28T14:15:17.858Z,97837.72
2022-12-28T14:17:48.332Z,97834.09
2022-12-28T14:20:16.622Z,97830.66
2022-12-28T14:22:45.509Z,97836.75
2022-12-28T14:25:17.366Z,97827.88
2022-12-28T14:27:57.241Z,97834.09
2022-12-28T14:30:30.037Z,97830.78
2022-12-28T14:33:07.139Z,97830.91
2022-12-28T14:35:50.262Z,97836.44
2022-12-28T14:38:22.333Z,97832.97
2022-12-28T14:40:55.970Z,97827.81
2022-12-28T14:43:27.929Z,97826.97
2022-12-28T14:46:05.039Z,97823.50
2022-12-28T14:48:40.542Z,97828.06
2022-12-28T14:51:29.013Z,97822.09
2022-12-28T14:54:24.581Z,97820.41
2022-12-28T14:57:00.467Z,97830.16
2022-12-28T14:59:33.739Z,97827.75
2022-12-28T15:02:04.602Z,97823.44
2022-12-28T15:04:39.153Z,97821.75
2022-12-28T15:07:09.532Z,97817.47
2022-12-28T15:09:37.879Z,97821.88
2022-12-28T15:12:14.894Z,97818.53
2022-12-28T15:14:44.051Z,97816.00
2022-12-28T15:17:14.064Z,97819.63
2022-12-28T15:19:44.912Z,97819.63
2022-12-28T15:22:13.869Z,97820.75
2022-12-28T15:24:45.333Z,97820.75
2022-12-28T15:27:13.923Z,97813.75
2022-12-28T15:32:31.842Z,97813.88
2022-12-28T15:35:00.100Z,97812.94
2022-12-28T15:37:28.389Z,97807.53
2022-12-28T15:39:56.656Z,97812.69
2022-12-28T15:42:24.999Z,97814.47
2022-12-28T15:44:54.097Z,97815.47
2022-12-28T15:47:23.329Z,97805.84
2022-12-28T15:49:53.069Z,97805.84
2022-12-28T15:52:21.391Z,97805.97
2022-12-28T15:54:49.713Z,97809.59
2022-12-28T15:57:18.135Z,97804.44
2022-12-28T15:59:47.156Z,97803.44
2022-12-28T16:02:16.504Z,97796.75
2022-12-28T16:04:44.986Z,97801.31
2022-12-28T16:07:15.116Z,97795.22
2022-12-28T16:09:43.407Z,97796.16
2022-12-28T16:12:17.151Z,97795.34
2022-12-28T16:14:47.781Z,97791.03
2022-12-28T16:17:16.661Z,97797.28
2022-12-28T16:19:44.856Z,97790.22
2022-12-28T16:22:14.444Z,97787.56
2022-12-28T16:24:42.690Z,97786.72
2022-12-28T16:27:11.187Z,97785.75
2022-12-28T16:29:39.498Z,97789.34
2022-12-28T16:32:08.187Z,97783.09
2022-12-28T16:34:36.510Z,97783.09
2022-12-28T16:37:05.026Z,97769.78
2022-12-28T16:39:34.906Z,97780.34
2022-12-28T16:42:03.296Z,97775.78
2022-12-28T16:44:31.693Z,97773.25
2022-12-28T16:47:00.145Z,97785.47
2022-12-28T16:49:29.654Z,97782.16
2022-12-28T16:51:58.456Z,97787.31
2022-12-28T16:54:28.298Z,97777.56
2022-12-28T16:56:57.985Z,97778.53
2022-12-28T16:59:29.306Z,97773.38
2022-12-28T17:01:59.322Z,97772.41
2022-12-28T17:04:28.217Z,97764.63
2022-12-28T17:06:56.501Z,97757.53
2022-12-28T17:09:24.763Z,97752.41
2022-12-28T17:11:53.070Z,97755.03
2022-12-28T17:14:36.790Z,97761.41
2022-12-28T17:17:06.227Z,97756.53
2022-12-28T17:19:34.774Z,97755.81
2022-12-28T17:22:04.084Z,97754.97
2022-12-28T17:24:32.614Z,97757.72
2022-12-28T17:27:07.464Z,97754.28
2022-12-28T17:29:38.971Z,97741.31
2022-12-28T17:32:08.657Z,97743.97
2022-12-28T17:34:37.504Z,97736.44
2022-12-28T17:37:06.443Z,97739.19
2022-12-28T17:39:40.388Z,97725.41
2022-12-28T17:42:10.371Z,97720.41
2022-12-28T17:44:40.129Z,97724.00
2022-12-28T17:47:09.100Z,97716.59
2022-12-28T17:49:37.463Z,97717.56
2022-12-28T17:52:06.046Z,97723.09
2022-12-28T17:54:34.959Z,97724.19
2022-12-28T17:57:03.306Z,97723.63
2022-12-28T17:59:31.929Z,97721.34
2022-12-28T18:02:05.017Z,97719.09
2022-12-28T18:04:34.624Z,97726.28
2022-12-28T18:07:03.176Z,97722.13
2022-12-28T18:09:31.541Z,97736.38
2022-12-28T18:11:59.991Z,97731.38
2022-12-28T18:14:29.287Z,97729.25
2022-12-28T18:16:57.810Z,97735.31
2022-12-28T18:19:27.643Z,97736.19
2022-12-28T18:21:56.003Z,97731.16
2022-12-28T18:24:24.699Z,97740.03
2022-12-28T18:26:53.108Z,97740.03
2022-12-28T18:29:21.486Z,97734.75
2022-12-28T18:31:49.949Z,97734.75
2022-12-28T18:34:18.424Z,97734.88
2022-12-28T18:36:48.298Z,97735.81
2022-12-28T18:39:16.677Z,97734.16
2022-12-28T18:41:45.060Z,97732.50
2022-12-28T18:44:13.383Z,97730.00
2022-12-28T18:46:41.858Z,97731.91
2022-12-28T18:49:10.703Z,97732.03
2022-12-28T18:51:39.027Z,97734.88
2022-12-28T18:54:08.797Z,97722.91
2022-12-28T18:56:37.167Z,97723.84
2022-12-28T18:59:05.612Z,97720.53
2022-12-28T19:04:25.365Z,97714.78
2022-12-28T19:06:53.929Z,97706.16
2022-12-28T19:09:23.694Z,97714.31
2022-12-28T19:11:52.839Z,97708.34
2022-12-28T19:14:21.159Z,97710.97
2022-12-28T19:16:49.434Z,97705.09
2022-12-28T19:19:17.986Z,97709.69
2022-12-28T19:21:46.690Z,97698.28
2022-12-28T19:24:17.053Z,97692.28
2022-12-28T19:26:47.993Z,97696.75
2022-12-28T19:29:17.304Z,97697.94
2022-12-28T19:31:45.878Z,97692.91
2022-12-28T19:34:15.741Z,97685.13
2022-12-28T19:36:44.074Z,97689.56
2022-12-28T19:39:12.934Z,97686.94
2022-12-28T19:41:41.199Z,97686.22
2022-12-28T19:44:10.883Z,97675.81
2022-12-28T19:46:39.537Z,97678.31
2022-12-28T19:49:07.912Z,97677.47
2022-12-28T19:51:36.172Z,97678.56
2022-12-28T19:54:04.711Z,97677.72
2022-12-28T19:56:33.303Z,97676.91
2022-12-28T19:59:06.520Z,97681.44
2022-12-28T20:01:38.977Z,97679.91
2022-12-28T20:04:13.654Z,97680.84
2022-12-28T20:06:44.584Z,97682.66
2022-12-28T20:09:14.340Z,97679.41
2022-12-28T20:11:43.314Z,97678.31
2022-12-28T20:14:14.127Z,97679.28
2022-12-28T20:16:44.492Z,97676.78
2022-12-28T20:19:13.980Z,97674.16
2022-12-28T20:21:42.688Z,97666.25
2022-12-28T20:24:13.679Z,97668.03
2022-12-28T20:26:42.356Z,97667.34
2022-12-28T20:29:10.898Z,97658.84
2022-12-28T20:31:39.293Z,97668.53
2022-12-28T20:34:09.084Z,97667.81
2022-12-28T20:36:37.755Z,97659.31
2022-12-28T20:39:06.207Z,97655.03
2022-12-28T20:41:52.254Z,97646.53
2022-12-28T20:44:25.833Z,97649.28
2022-12-28T20:46:55.313Z,97642.47
2022-12-28T20:49:26.699Z,97639.22
2022-12-28T20:51:56.117Z,97636.72
2022-12-28T20:54:25.301Z,97632.66
2022-12-28T20:56:55.773Z,97624.88
2022-12-28T20:59:26.037Z,97617.34
2022-12-28T21:01:55.358Z,97610.06
2022-12-28T21:04:26.011Z,97601.44
2022-12-28T21:06:55.170Z,97606.69
2022-12-28T21:09:23.551Z,97604.19
2022-12-28T21:11:51.987Z,97603.38
2022-12-28T21:14:20.530Z,97602.66
2022-12-28T21:16:49.241Z,97595.47
2022-12-28T21:19:17.797Z,97596.91
2022-12-28T21:21:49.426Z,97587.94
2022-12-28T21:24:17.695Z,97591.28
2022-12-28T21:26:46.014Z,97590.34
2022-12-28T21:29:14.794Z,97592.84
2022-12-28T21:31:45.273Z,97585.88
2022-12-28T21:34:13.647Z,97594.75
2022-12-28T21:36:41.992Z,97600.88
2022-12-28T21:39:11.726Z,97599.06
2022-12-28T21:41:52.772Z,97593.09
2022-12-28T21:44:24.415Z,97592.38
2022-12-28T21:46:54.148Z,97597.63
2022-12-28T21:49:22.791Z,97601.22
2022-12-28T21:51:51.600Z,97592.59
2022-12-28T21:54:22.786Z,97590.09
2022-12-28T21:56:53.620Z,97591.06
2022-12-28T21:59:23.540Z,97575.41
2022-12-28T22:02:10.453Z,97573.69
2022-12-28T22:05:02.110Z,97567.75
2022-12-28T22:07:30.784Z,97572.41
2022-12-28T22:10:17.744Z,97570.84
2022-12-28T22:12:46.207Z,97576.59
2022-12-28T22:15:43.283Z,97580.19
2022-12-28T22:18:44.569Z,97572.53
2022-12-28T22:21:08.268Z,97565.00
2022-12-28T22:23:36.533Z,97562.38
2022-12-28T22:26:06.394Z,97559.16
2022-12-28T22:28:34.717Z,97565.94
2022-12-28T22:31:05.877Z,97561.53
2022-12-28T22:33:34.238Z,97555.44
2022-12-28T22:36:11.241Z,97556.41
2022-12-28T22:38:39.577Z,97563.44
2022-12-28T22:41:09.596Z,97564.41
2022-12-28T22:43:38.439Z,97562.63
2022-12-28T22:46:09.983Z,97565.38
2022-12-28T22:48:39.070Z,97564.53
2022-12-28T22:51:09.919Z,97563.78
2022-12-28T22:53:39.169Z,97563.91
2022-12-28T22:56:12.756Z,97558.78
2022-12-28T22:58:41.010Z,97559.75
2022-12-28T23:01:12.905Z,97554.72
2022-12-28T23:03:42.575Z,97545.53
2022-12-28T23:06:12.511Z,97549.81
2022-12-28T23:08:41.081Z,97545.66
2022-12-28T23:11:35.757Z,97544.06
2022-12-28T23:14:19.460Z,97546.94
2022-12-28T23:16:47.921Z,97533.91
2022-12-28T23:19:34.426Z,97531.53
2022-12-28T23:22:20.986Z,97528.19
2022-12-28T23:25:06.580Z,97521.38
2022-12-28T23:27:38.996Z,97516.38
2022-12-28T23:30:11.939Z,97512.88
2022-12-28T23:32:40.349Z,97518.16
2022-12-28T23:35:09.596Z,97513.00
2022-12-28T23:37:37.914Z,97514.78
2022-12-28T23:40:07.819Z,97511.34
2022-12-28T23:42:38.346Z,97506.22
2022-12-28T23:45:09.646Z,97508.94
2022-12-28T23:47:38.581Z,97502.09
2022-12-28T23:50:08.175Z,97500.44
2022-12-28T23:52:36.650Z,97489.19
2022-12-28T23:55:05.817Z,97493.63
2022-12-28T23:57:34.032Z,97485.75
